Time;durP1;ratioP1;P1;durP2;ratioP2;P2;SDS_P1;SDS_P2;PMS_P1;PMS_P2;Temp;Humidity;BMP_temperature;BMP_pressure;BME280_temperature;BME280_humidity;BME280_pressure;Samples;Min_cycle;Max_cycle;Signal;HPM_P1;HPM_P2
2022/01/25 00:09:48;;;;;;;20.27;14.77;;;6.40;99.90;;;;;;4935528;29;20533;-50
2022/01/25 00:15:10;;;;;;;22.07;14.80;;;6.40;99.90;;;;;;4935785;29;20470;-51
2022/01/25 00:26:03;;;;;;;24.47;13.90;;;6.30;99.90;;;;;;4916690;29;20480;-49
2022/01/25 00:28:43;;;;;;;26.07;15.87;;;6.40;99.90;;;;;;4897343;29;20470;-49
2022/01/25 00:31:13;;;;;;;22.47;16.20;;;6.40;99.90;;;;;;4897806;29;20567;-48
2022/01/25 00:33:42;;;;;;;24.43;16.03;;;6.40;99.90;;;;;;4897573;29;20459;-51
2022/01/25 00:36:12;;;;;;;23.07;17.40;;;6.40;99.90;;;;;;4897589;29;20810;-49
2022/01/25 00:38:39;;;;;;;22.00;15.40;;;6.40;99.90;;;;;;4897335;29;20438;-48
2022/01/25 00:41:07;;;;;;;20.67;14.93;;;6.40;99.90;;;;;;4897432;29;20900;-49
2022/01/25 00:43:33;;;;;;;20.43;14.97;;;6.30;99.90;;;;;;4897222;29;20988;-50
2022/01/25 00:46:05;;;;;;;23.50;15.33;;;6.30;99.90;;;;;;4931382;29;20446;-49
2022/01/25 00:48:41;;;;;;;19.63;14.37;;;6.30;99.90;;;;;;4934768;29;20452;-48
2022/01/25 00:51:20;;;;;;;20.70;14.30;;;6.30;99.90;;;;;;4935139;29;20445;-49
2022/01/25 00:53:58;;;;;;;19.30;14.00;;;6.30;99.90;;;;;;4935126;29;20459;-48
2022/01/25 00:56:29;;;;;;;21.60;15.47;;;6.40;99.90;;;;;;4934900;29;20429;-49
2022/01/25 00:58:56;;;;;;;22.30;14.60;;;6.40;99.90;;;;;;4934658;29;20458;-48
2022/01/25 01:01:23;;;;;;;23.50;16.80;;;6.40;99.90;;;;;;4935039;29;20448;-49
2022/01/25 01:03:51;;;;;;;20.70;14.63;;;6.40;99.90;;;;;;4934744;29;20461;-49
2022/01/25 01:06:18;;;;;;;22.60;17.03;;;6.40;99.90;;;;;;4935100;29;20910;-49
2022/01/25 01:08:45;;;;;;;21.00;16.00;;;6.30;99.90;;;;;;4934485;29;20442;-51
2022/01/25 01:11:18;;;;;;;21.57;15.63;;;6.40;99.90;;;;;;4934775;29;20442;-48
2022/01/25 01:14:00;;;;;;;20.77;15.70;;;6.40;99.90;;;;;;4934720;29;20478;-49
2022/01/25 01:16:54;;;;;;;21.00;15.30;;;6.40;99.90;;;;;;4930052;29;20842;-50
2022/01/25 01:30:42;;;;;;;25.23;16.80;;;6.30;99.90;;;;;;4915273;29;20456;-49
2022/01/25 01:33:43;;;;;;;21.10;14.90;;;6.40;99.90;;;;;;4915453;29;20414;-49
2022/01/25 01:39:24;;;;;;;25.23;15.33;;;6.30;99.90;;;;;;4915206;29;20436;-50
2022/01/25 01:44:50;;;;;;;24.73;15.70;;;6.30;99.90;;;;;;4921266;29;20525;-49
2022/01/25 01:47:24;;;;;;;22.03;16.43;;;6.30;99.90;;;;;;4934456;29;20570;-49
2022/01/25 01:49:51;;;;;;;24.90;15.73;;;6.30;99.90;;;;;;4934048;29;20454;-49
2022/01/25 01:52:17;;;;;;;27.73;16.63;;;6.30;99.90;;;;;;4934521;29;20446;-51
2022/01/25 01:54:44;;;;;;;28.87;16.80;;;6.10;99.90;;;;;;4934244;29;20467;-48
2022/01/25 01:57:10;;;;;;;24.77;16.13;;;6.30;99.90;;;;;;4934318;29;20506;-49
2022/01/25 01:59:37;;;;;;;25.60;16.73;;;6.20;99.90;;;;;;4934113;29;20449;-49
2022/01/25 02:02:05;;;;;;;23.87;17.07;;;6.20;99.90;;;;;;4934254;29;20448;-50
2022/01/25 02:04:32;;;;;;;28.23;17.50;;;6.30;99.90;;;;;;4934041;29;20463;-50
2022/01/25 02:06:59;;;;;;;27.70;17.87;;;6.20;99.90;;;;;;4936663;29;20439;-48
2022/01/25 02:09:26;;;;;;;25.47;16.47;;;6.20;99.90;;;;;;4937736;29;20442;-50
2022/01/25 02:11:52;;;;;;;28.20;17.70;;;6.20;99.90;;;;;;4938129;29;20432;-50
2022/01/25 02:14:19;;;;;;;28.03;18.80;;;6.20;99.90;;;;;;4937927;29;20814;-50
2022/01/25 02:17:02;;;;;;;29.07;18.27;;;6.10;99.90;;;;;;4930763;29;20555;-49
2022/01/25 02:25:08;;;;;;;28.33;17.40;;;6.10;99.90;;;;;;4895268;29;20506;-49
2022/01/25 02:27:34;;;;;;;29.07;19.57;;;6.10;99.90;;;;;;4919098;29;20939;-49
2022/01/25 02:30:01;;;;;;;31.37;18.00;;;6.20;99.90;;;;;;4918342;29;20466;-49
2022/01/25 02:32:28;;;;;;;28.90;19.20;;;6.20;99.90;;;;;;4918805;29;20442;-49
2022/01/25 02:34:54;;;;;;;30.63;19.97;;;6.10;99.90;;;;;;4918704;29;20458;-51
2022/01/25 02:37:22;;;;;;;32.77;19.30;;;6.10;99.90;;;;;;4918483;29;20434;-50
2022/01/25 02:39:49;;;;;;;35.70;19.97;;;6.00;99.90;;;;;;4918174;29;20840;-49
2022/01/25 02:42:17;;;;;;;35.47;20.10;;;6.00;99.90;;;;;;4918502;29;20443;-49
2022/01/25 02:44:44;;;;;;;39.60;21.60;;;6.00;99.90;;;;;;4925522;29;20499;-49
2022/01/25 02:49:57;;;;;;;35.47;20.63;;;5.90;99.90;;;;;;4936922;29;20418;-51
2022/01/25 02:52:26;;;;;;;36.00;22.10;;;5.80;99.90;;;;;;4937338;29;20460;-49
2022/01/25 02:54:53;;;;;;;34.37;20.83;;;5.80;99.90;;;;;;4937119;29;20508;-50
2022/01/25 02:57:21;;;;;;;36.57;21.80;;;5.70;99.90;;;;;;4937023;29;20439;-50
2022/01/25 02:59:48;;;;;;;37.27;22.70;;;5.70;99.90;;;;;;4919735;29;20548;-48
2022/01/25 03:02:14;;;;;;;38.63;23.00;;;5.80;99.90;;;;;;4937229;29;20423;-49
2022/01/25 03:04:41;;;;;;;40.87;21.10;;;5.80;99.90;;;;;;4937058;29;20866;-49
2022/01/25 03:07:08;;;;;;;38.03;22.37;;;5.80;99.90;;;;;;4937137;29;20452;-48
2022/01/25 03:09:36;;;;;;;32.70;21.80;;;5.70;99.90;;;;;;4936969;29;20905;-48
2022/01/25 03:12:06;;;;;;;36.07;21.40;;;5.70;99.90;;;;;;4937175;29;20404;-50
2022/01/25 03:14:36;;;;;;;42.00;23.40;;;5.70;99.90;;;;;;4936934;29;20482;-48
2022/01/25 03:17:09;;;;;;;42.53;23.37;;;5.70;99.90;;;;;;4927486;29;20450;-48
2022/01/25 03:19:51;;;;;;;39.07;21.43;;;5.70;99.90;;;;;;4917141;29;20438;-49
2022/01/25 03:22:31;;;;;;;42.13;21.87;;;5.70;99.90;;;;;;4918141;29;20438;-50
2022/01/25 03:24:59;;;;;;;35.67;23.70;;;5.70;99.90;;;;;;4917696;29;20490;-50
2022/01/25 03:27:25;;;;;;;42.27;21.90;;;5.70;99.90;;;;;;4917758;29;20449;-50
2022/01/25 03:29:52;;;;;;;35.77;21.93;;;5.70;99.90;;;;;;4917398;29;20446;-48
2022/01/25 03:32:19;;;;;;;37.70;22.60;;;5.80;99.90;;;;;;4917653;29;20438;-50
2022/01/25 03:34:45;;;;;;;36.43;22.27;;;5.70;99.90;;;;;;4917624;29;20444;-49
2022/01/25 03:37:12;;;;;;;33.10;20.10;;;5.70;99.90;;;;;;4917527;29;20448;-50
2022/01/25 03:39:39;;;;;;;36.93;19.97;;;5.70;99.90;;;;;;4917182;29;20844;-49
2022/01/25 03:42:09;;;;;;;39.10;22.47;;;5.70;99.90;;;;;;4917329;29;20444;-49
2022/01/25 03:44:36;;;;;;;33.20;20.53;;;5.70;99.90;;;;;;4923482;29;20850;-50
2022/01/25 03:47:07;;;;;;;32.78;20.40;;;5.70;99.90;;;;;;4936461;29;20442;-49
2022/01/25 03:49:49;;;;;;;34.33;20.80;;;5.70;99.90;;;;;;4936148;29;20215;-49
2022/01/25 03:52:19;;;;;;;36.17;20.93;;;5.70;99.90;;;;;;4936266;29;20501;-52
2022/01/25 03:54:48;;;;;;;33.03;19.77;;;5.70;99.90;;;;;;4936074;29;20556;-49
2022/01/25 03:57:16;;;;;;;34.43;21.27;;;5.70;99.90;;;;;;4936017;29;20459;-50
2022/01/25 03:59:42;;;;;;;40.57;21.93;;;5.70;99.90;;;;;;4935690;29;20442;-50
2022/01/25 04:02:09;;;;;;;34.13;19.90;;;5.70;99.90;;;;;;4936160;29;20448;-49
2022/01/25 04:04:36;;;;;;;33.13;19.97;;;5.70;99.90;;;;;;4935795;29;20945;-49
2022/01/25 04:07:08;;;;;;;34.40;19.67;;;5.70;99.90;;;;;;4935963;29;20934;-50
2022/01/25 04:09:35;;;;;;;32.60;17.23;;;5.70;99.90;;;;;;4935423;29;20450;-49
2022/01/25 04:12:02;;;;;;;30.57;18.60;;;5.80;99.90;;;;;;4935804;29;20439;-50
2022/01/25 04:14:30;;;;;;;33.87;19.63;;;5.80;99.90;;;;;;4936177;29;20473;-51
2022/01/25 04:17:00;;;;;;;37.10;20.23;;;5.80;99.90;;;;;;4926849;29;20537;-50
2022/01/25 04:19:33;;;;;;;33.87;19.70;;;5.80;99.90;;;;;;4916403;29;20474;-49
2022/01/25 04:27:36;;;;;;;34.93;19.60;;;5.80;99.90;;;;;;4906256;29;20536;-50
2022/01/25 04:30:06;;;;;;;29.33;18.57;;;5.80;99.90;;;;;;4915164;29;20445;-50
2022/01/25 04:32:40;;;;;;;35.67;19.63;;;5.80;99.90;;;;;;4916321;29;20433;-50
2022/01/25 04:35:11;;;;;;;34.40;19.93;;;5.80;99.90;;;;;;4916407;29;20462;-49
2022/01/25 04:51:33;;;;;;;33.97;19.33;;;5.80;99.90;;;;;;4935010;29;20629;-50
2022/01/25 04:54:05;;;;;;;32.80;18.63;;;5.80;99.90;;;;;;4935036;29;20535;-50
2022/01/25 04:56:38;;;;;;;31.60;18.93;;;5.90;99.90;;;;;;4934882;29;20432;-50
2022/01/25 04:59:11;;;;;;;29.97;16.83;;;5.90;99.90;;;;;;4934741;29;20451;-50
2022/01/25 05:01:40;;;;;;;32.40;18.10;;;5.80;99.90;;;;;;4934782;29;20445;-50
2022/01/25 05:04:11;;;;;;;31.23;19.00;;;5.80;99.90;;;;;;4935124;29;20789;-50
2022/01/25 05:06:39;;;;;;;33.17;17.70;;;5.80;99.90;;;;;;4934754;29;20484;-51
2022/01/25 05:09:10;;;;;;;28.20;17.03;;;5.80;99.90;;;;;;4934663;29;20448;-50
2022/01/25 05:11:42;;;;;;;28.57;16.77;;;5.80;99.90;;;;;;4934687;29;20437;-50
2022/01/25 05:14:20;;;;;;;30.00;18.13;;;5.90;99.90;;;;;;4934575;29;20477;-50
2022/01/25 05:16:51;;;;;;;35.33;19.30;;;5.90;99.90;;;;;;4926897;29;20430;-51
2022/01/25 05:22:06;;;;;;;28.07;17.57;;;5.90;99.90;;;;;;4914634;29;20470;-49
2022/01/25 05:24:34;;;;;;;34.03;17.63;;;5.90;99.90;;;;;;4915460;29;20496;-50
2022/01/25 05:27:01;;;;;;;38.03;19.90;;;5.80;99.90;;;;;;4915439;29;20450;-49
2022/01/25 05:29:28;;;;;;;28.13;17.80;;;5.70;99.90;;;;;;4915259;29;20419;-49
2022/01/25 05:31:56;;;;;;;30.73;19.87;;;5.90;99.90;;;;;;4915685;29;20452;-49
2022/01/25 05:34:23;;;;;;;31.23;17.13;;;5.80;99.90;;;;;;4915270;29;20458;-49
2022/01/25 05:36:50;;;;;;;28.90;17.00;;;5.80;99.90;;;;;;4915129;29;20446;-48
2022/01/25 05:39:20;;;;;;;31.70;17.60;;;5.80;99.90;;;;;;4914979;29;20417;-48
2022/01/25 05:41:55;;;;;;;34.43;20.37;;;5.80;99.90;;;;;;4914610;29;20532;-50
2022/01/25 05:44:39;;;;;;;32.47;19.90;;;5.80;99.90;;;;;;4919179;29;20455;-48
2022/01/25 05:47:13;;;;;;;37.33;20.13;;;5.80;99.90;;;;;;4934240;29;20436;-50
2022/01/25 05:49:40;;;;;;;33.17;19.00;;;5.80;99.90;;;;;;4933562;29;20961;-49
2022/01/25 05:52:09;;;;;;;40.13;22.83;;;5.80;99.90;;;;;;4934305;29;20421;-49
2022/01/25 05:54:37;;;;;;;30.73;17.97;;;5.80;99.90;;;;;;4934368;29;20801;-49
2022/01/25 05:57:04;;;;;;;32.43;18.30;;;5.80;99.90;;;;;;4934052;29;20464;-48
2022/01/25 05:59:30;;;;;;;38.30;18.83;;;5.80;99.90;;;;;;4934189;29;20800;-48
2022/01/25 06:01:57;;;;;;;37.37;20.40;;;5.80;99.90;;;;;;4933959;29;20935;-48
2022/01/25 06:04:25;;;;;;;36.57;19.83;;;5.80;99.90;;;;;;4933820;29;20800;-49
2022/01/25 06:06:52;;;;;;;35.63;20.07;;;5.80;99.90;;;;;;4933797;29;20459;-48
2022/01/25 06:09:19;;;;;;;39.10;20.30;;;5.80;99.90;;;;;;4933503;29;20448;-49
2022/01/25 06:11:45;;;;;;;33.33;19.23;;;5.80;99.90;;;;;;4933983;29;20449;-49
2022/01/25 06:14:12;;;;;;;32.80;19.37;;;5.80;99.90;;;;;;4933741;29;20483;-48
2022/01/25 06:16:38;;;;;;;33.67;19.20;;;5.80;99.90;;;;;;4927373;29;20425;-48
2022/01/25 06:19:05;;;;;;;33.63;20.13;;;5.80;99.90;;;;;;4914210;29;20442;-48
2022/01/25 06:21:33;;;;;;;34.97;19.83;;;5.70;99.90;;;;;;4915088;29;20448;-48
2022/01/25 06:24:00;;;;;;;32.97;18.87;;;5.80;99.90;;;;;;4914543;29;20454;-48
2022/01/25 06:26:26;;;;;;;37.33;18.63;;;5.80;99.90;;;;;;4914304;29;20483;-49
2022/01/25 06:28:53;;;;;;;31.77;18.00;;;5.80;99.90;;;;;;4914072;29;20426;-49
2022/01/25 06:31:19;;;;;;;35.23;19.80;;;5.80;99.90;;;;;;4914436;29;20424;-49
2022/01/25 06:33:46;;;;;;;34.53;18.63;;;5.80;99.90;;;;;;4914954;29;20428;-50
2022/01/25 06:36:13;;;;;;;34.50;18.60;;;5.80;99.90;;;;;;4914781;29;20430;-50
2022/01/25 06:38:42;;;;;;;35.40;18.87;;;5.80;99.90;;;;;;4913994;29;20804;-49
2022/01/25 06:41:11;;;;;;;32.27;18.90;;;5.90;99.90;;;;;;4914512;29;20425;-50
2022/01/25 06:43:39;;;;;;;34.77;18.83;;;5.70;99.90;;;;;;4914711;29;20510;-49
2022/01/25 06:46:06;;;;;;;31.23;19.40;;;5.90;99.90;;;;;;4932538;29;20484;-49
2022/01/25 06:48:33;;;;;;;33.90;20.03;;;5.80;99.90;;;;;;4933045;29;20419;-49
2022/01/25 06:51:00;;;;;;;31.20;18.70;;;5.90;99.90;;;;;;4932694;29;20789;-49
2022/01/25 06:53:27;;;;;;;35.10;20.13;;;5.90;99.90;;;;;;4934274;29;20461;-50
2022/01/25 06:55:56;;;;;;;29.67;17.93;;;5.90;99.90;;;;;;4936582;29;20448;-48
2022/01/25 06:58:22;;;;;;;34.73;18.13;;;5.80;99.90;;;;;;4936613;29;20886;-48
2022/01/25 07:00:49;;;;;;;36.57;21.10;;;5.90;99.90;;;;;;4937177;29;20422;-49
2022/01/25 07:03:16;;;;;;;31.00;17.77;;;5.90;99.90;;;;;;4937680;29;20465;-49
2022/01/25 07:05:42;;;;;;;34.83;19.23;;;5.90;99.90;;;;;;4936792;29;20878;-49
2022/01/25 07:08:09;;;;;;;35.20;20.20;;;5.90;99.90;;;;;;4937211;29;20440;-49
2022/01/25 07:10:36;;;;;;;33.87;18.87;;;5.90;99.90;;;;;;4936052;29;20449;-50
2022/01/25 07:13:04;;;;;;;36.43;21.57;;;5.90;99.90;;;;;;4936155;29;20872;-49
2022/01/25 07:15:31;;;;;;;28.70;19.10;;;5.90;99.90;;;;;;4936351;29;20893;-49
2022/01/25 07:17:58;;;;;;;33.83;20.90;;;5.80;99.90;;;;;;4919798;29;20451;-49
2022/01/25 07:20:24;;;;;;;33.60;20.53;;;5.90;99.90;;;;;;4916663;29;20460;-51
2022/01/25 07:22:52;;;;;;;36.63;20.20;;;5.90;99.90;;;;;;4917371;29;20758;-49
2022/01/25 07:25:19;;;;;;;39.13;22.67;;;5.70;99.90;;;;;;4899979;29;20545;-48
2022/01/25 07:27:46;;;;;;;35.23;21.57;;;5.90;99.90;;;;;;4917197;29;20449;-49
2022/01/25 07:30:14;;;;;;;34.80;20.13;;;5.90;99.90;;;;;;4916962;29;20926;-49
2022/01/25 07:32:40;;;;;;;33.90;19.97;;;5.90;99.90;;;;;;4916945;29;20450;-48
2022/01/25 07:35:08;;;;;;;36.40;21.23;;;5.90;99.90;;;;;;4917046;29;20444;-48
2022/01/25 07:37:34;;;;;;;38.97;21.20;;;6.00;99.90;;;;;;4916818;29;20413;-50
2022/01/25 07:40:01;;;;;;;46.07;24.37;;;6.00;99.90;;;;;;4916599;29;20425;-49
2022/01/25 07:42:28;;;;;;;41.77;24.13;;;6.00;99.90;;;;;;4916812;29;20447;-49
2022/01/25 07:44:55;;;;;;;44.23;25.13;;;6.00;99.90;;;;;;4908158;29;20489;-50
2022/01/25 07:47:23;;;;;;;41.77;24.53;;;6.00;99.90;;;;;;4935338;29;20460;-50
2022/01/25 07:49:50;;;;;;;51.93;24.33;;;6.10;99.90;;;;;;4935607;29;20442;-49
2022/01/25 07:52:17;;;;;;;44.30;23.57;;;6.10;99.90;;;;;;4935698;29;20442;-49
2022/01/25 07:54:44;;;;;;;35.77;20.47;;;6.10;99.90;;;;;;4935240;29;20462;-49
2022/01/25 07:57:10;;;;;;;43.83;24.73;;;6.10;99.90;;;;;;4935437;29;20546;-49
2022/01/25 07:59:37;;;;;;;39.33;22.60;;;6.20;99.90;;;;;;4935223;29;20437;-52
2022/01/25 08:02:04;;;;;;;46.70;23.57;;;6.20;99.90;;;;;;4935247;29;20448;-49
2022/01/25 08:04:32;;;;;;;39.43;20.67;;;6.20;99.90;;;;;;4935218;29;20433;-51
2022/01/25 08:06:59;;;;;;;37.00;22.23;;;6.10;99.90;;;;;;4935229;29;20487;-49
2022/01/25 08:09:26;;;;;;;41.03;24.13;;;6.20;99.90;;;;;;4935208;29;20438;-51
2022/01/25 08:11:52;;;;;;;41.10;22.10;;;6.20;99.90;;;;;;4918083;29;20461;-49
2022/01/25 08:14:19;;;;;;;34.60;21.80;;;6.20;99.90;;;;;;4934945;29;20544;-49
2022/01/25 08:16:49;;;;;;;52.37;24.60;;;6.20;99.90;;;;;;4928104;29;20785;-49
2022/01/25 08:19:17;;;;;;;45.00;23.77;;;6.10;99.90;;;;;;4915751;29;20424;-48
2022/01/25 08:21:45;;;;;;;42.83;23.40;;;6.20;99.90;;;;;;4916023;29;20477;-49
2022/01/25 08:24:14;;;;;;;52.83;26.40;;;6.20;99.90;;;;;;4915593;29;20478;-49
2022/01/25 08:26:42;;;;;;;36.90;22.67;;;6.20;99.90;;;;;;4916161;29;21071;-49
2022/01/25 08:29:09;;;;;;;43.20;23.57;;;6.30;99.90;;;;;;4915699;29;20457;-48
2022/01/25 08:31:38;;;;;;;43.63;26.10;;;6.30;99.90;;;;;;4915884;29;20940;-48
2022/01/25 08:34:05;;;;;;;44.67;25.30;;;6.30;99.90;;;;;;4915684;29;20664;-49
2022/01/25 08:36:32;;;;;;;48.10;25.53;;;6.40;99.90;;;;;;4915803;29;20447;-49
2022/01/25 08:39:00;;;;;;;51.50;26.30;;;6.40;99.90;;;;;;4915572;29;20475;-48
2022/01/25 08:41:27;;;;;;;45.67;23.97;;;6.50;99.90;;;;;;4915920;29;20802;-49
2022/01/25 08:43:54;;;;;;;44.40;22.57;;;6.50;99.90;;;;;;4916358;29;20479;-49
2022/01/25 08:46:21;;;;;;;39.70;22.93;;;6.50;99.90;;;;;;4934442;29;20817;-49
2022/01/25 08:48:48;;;;;;;45.13;24.17;;;6.60;99.90;;;;;;4934324;29;20501;-48
2022/01/25 08:51:16;;;;;;;39.47;22.20;;;6.60;99.90;;;;;;4917407;29;20458;-49
2022/01/25 08:53:42;;;;;;;42.80;22.73;;;6.70;99.90;;;;;;4934402;29;20457;-49
2022/01/25 08:56:10;;;;;;;46.17;22.97;;;6.70;99.90;;;;;;4934711;29;20532;-49
2022/01/25 08:58:37;;;;;;;39.63;22.90;;;6.80;99.90;;;;;;4934054;29;20442;-49
2022/01/25 09:01:05;;;;;;;45.63;24.33;;;6.80;99.90;;;;;;4934534;29;20443;-50
2022/01/25 09:03:31;;;;;;;47.47;25.90;;;6.80;99.90;;;;;;4934675;29;20462;-49
2022/01/25 09:05:58;;;;;;;40.27;22.70;;;6.80;99.90;;;;;;4934120;29;20453;-50
2022/01/25 09:08:27;;;;;;;51.43;24.30;;;6.80;99.90;;;;;;4934476;29;20435;-50
2022/01/25 09:10:58;;;;;;;46.90;23.87;;;6.90;99.90;;;;;;4934436;29;20549;-50
2022/01/25 09:13:27;;;;;;;43.90;23.20;;;6.90;99.90;;;;;;4934117;29;20492;-48
2022/01/25 09:15:53;;;;;;;44.13;25.20;;;6.90;99.90;;;;;;4933536;29;20414;-48
2022/01/25 09:18:20;;;;;;;48.07;24.77;;;6.90;99.90;;;;;;4913247;29;20467;-49
2022/01/25 09:20:47;;;;;;;48.57;25.23;;;6.90;99.90;;;;;;4914996;29;20793;-49
2022/01/25 09:23:16;;;;;;;46.13;23.90;;;6.90;99.90;;;;;;4914928;29;20818;-49
2022/01/25 09:25:43;;;;;;;42.53;24.60;;;7.00;99.90;;;;;;4914902;29;20515;-49
2022/01/25 09:28:09;;;;;;;42.17;24.43;;;7.00;99.90;;;;;;4914964;29;20550;-49
2022/01/25 09:30:37;;;;;;;39.93;25.10;;;7.00;99.90;;;;;;4914840;29;20514;-51
2022/01/25 09:33:04;;;;;;;44.40;22.97;;;6.90;99.90;;;;;;4914691;29;20945;-51
2022/01/25 09:35:31;;;;;;;40.40;21.40;;;6.90;99.90;;;;;;4914856;29;20444;-49
2022/01/25 09:37:58;;;;;;;38.33;21.83;;;6.90;99.90;;;;;;4915043;29;20474;-49
2022/01/25 09:40:26;;;;;;;35.57;20.37;;;6.90;99.90;;;;;;4914965;29;20441;-49
2022/01/25 09:42:56;;;;;;;39.17;20.33;;;6.80;99.90;;;;;;4915181;29;20451;-50
2022/01/25 09:45:23;;;;;;;38.50;20.30;;;6.80;99.90;;;;;;4927193;29;20462;-50
2022/01/25 09:47:52;;;;;;;37.23;19.80;;;6.80;99.90;;;;;;4934321;29;20463;-48
2022/01/25 09:50:19;;;;;;;37.20;20.40;;;6.80;99.90;;;;;;4933948;29;20454;-48
2022/01/25 09:52:46;;;;;;;35.63;20.57;;;6.80;99.90;;;;;;4917944;29;20453;-49
2022/01/25 09:55:15;;;;;;;32.87;18.57;;;6.80;99.90;;;;;;4914991;29;20970;-49
2022/01/25 09:57:43;;;;;;;33.63;19.10;;;6.80;99.90;;;;;;4914509;29;20456;-48
2022/01/25 10:00:13;;;;;;;36.77;21.97;;;6.80;99.90;;;;;;4915176;29;20466;-49
2022/01/25 10:02:47;;;;;;;37.33;19.97;;;6.90;99.90;;;;;;4914757;29;20443;-49
2022/01/25 10:05:25;;;;;;;35.50;19.27;;;6.80;99.90;;;;;;4914962;29;20457;-51
2022/01/25 10:07:57;;;;;;;32.50;18.90;;;6.90;99.90;;;;;;4914832;29;20492;-49
2022/01/25 10:10:25;;;;;;;31.00;18.10;;;6.90;99.90;;;;;;4914871;29;20448;-50
2022/01/25 10:12:52;;;;;;;36.73;20.50;;;7.00;99.90;;;;;;4915088;29;20447;-50
2022/01/25 10:15:19;;;;;;;33.40;18.77;;;7.10;99.90;;;;;;4915186;29;20482;-50
2022/01/25 10:17:46;;;;;;;31.67;17.73;;;7.10;99.90;;;;;;4914985;29;20869;-49
2022/01/25 10:20:29;;;;;;;29.07;17.93;;;7.20;99.90;;;;;;4914855;29;20411;-49
2022/01/25 10:22:59;;;;;;;29.87;17.60;;;7.20;99.90;;;;;;4913560;29;20622;-49
2022/01/25 10:25:35;;;;;;;31.40;17.33;;;7.20;99.90;;;;;;4915080;29;20473;-49
2022/01/25 10:28:03;;;;;;;28.87;17.43;;;7.20;99.90;;;;;;4917506;29;20498;-49
2022/01/25 10:30:32;;;;;;;26.30;15.47;;;7.10;99.90;;;;;;4918175;29;20439;-50
2022/01/25 10:33:01;;;;;;;29.03;16.90;;;7.20;99.90;;;;;;4918305;29;20494;-49
2022/01/25 10:35:31;;;;;;;24.60;15.40;;;7.10;99.90;;;;;;4918521;29;20467;-49
2022/01/25 10:37:57;;;;;;;27.70;17.07;;;7.20;99.90;;;;;;4918228;29;20459;-49
2022/01/25 10:40:37;;;;;;;28.73;16.50;;;7.20;99.90;;;;;;4917967;29;20969;-50
2022/01/25 10:43:06;;;;;;;31.97;16.80;;;7.20;99.90;;;;;;4917973;29;20945;-50
2022/01/25 10:45:33;;;;;;;30.20;16.80;;;7.20;99.90;;;;;;4931698;29;20481;-50
2022/01/25 10:48:00;;;;;;;31.50;16.07;;;7.10;99.90;;;;;;4937272;29;20486;-50
2022/01/25 10:50:31;;;;;;;26.50;15.67;;;6.90;99.90;;;;;;4936457;29;20446;-50
2022/01/25 10:53:10;;;;;;;26.37;14.77;;;7.10;99.90;;;;;;4937082;29;20479;-50
2022/01/25 10:55:38;;;;;;;28.23;15.03;;;7.10;99.90;;;;;;4936814;29;20437;-50
2022/01/25 10:58:05;;;;;;;23.97;14.80;;;7.10;99.90;;;;;;4936374;29;20446;-50
2022/01/25 11:00:34;;;;;;;24.97;14.97;;;7.00;99.90;;;;;;4936606;29;20438;-50
2022/01/25 11:03:01;;;;;;;30.00;17.20;;;7.10;99.90;;;;;;4936399;29;20920;-50
2022/01/25 11:05:32;;;;;;;27.73;16.00;;;7.10;99.90;;;;;;4936532;29;20517;-50
2022/01/25 11:08:12;;;;;;;30.00;16.17;;;7.10;99.90;;;;;;4936260;29;20953;-51
2022/01/25 11:10:47;;;;;;;30.60;16.30;;;7.20;99.90;;;;;;4936720;29;20430;-50
2022/01/25 11:13:33;;;;;;;29.73;15.93;;;7.30;99.90;;;;;;4936983;29;20933;-50
2022/01/25 11:16:02;;;;;;;26.93;17.10;;;7.30;99.90;;;;;;4935459;29;20464;-49
2022/01/25 11:18:30;;;;;;;26.33;16.33;;;7.30;99.90;;;;;;4917769;29;20932;-50
2022/01/25 11:20:58;;;;;;;30.50;16.87;;;7.30;99.90;;;;;;4917814;29;20450;-50
2022/01/25 11:23:26;;;;;;;24.73;15.93;;;7.40;99.90;;;;;;4917123;29;20964;-50
2022/01/25 11:25:55;;;;;;;28.33;15.87;;;7.40;99.90;;;;;;4917095;29;20448;-50
2022/01/25 11:28:23;;;;;;;25.13;14.67;;;7.40;99.90;;;;;;4916774;29;20485;-49
2022/01/25 11:30:52;;;;;;;25.20;15.10;;;7.40;99.90;;;;;;4916233;29;20615;-50
2022/01/25 11:33:20;;;;;;;27.63;14.80;;;7.50;99.90;;;;;;4917522;29;20464;-50
2022/01/25 11:35:47;;;;;;;21.70;12.90;;;7.40;99.90;;;;;;4916655;29;20794;-49
2022/01/25 11:38:14;;;;;;;23.83;13.80;;;7.40;99.90;;;;;;4917506;29;20553;-49
2022/01/25 11:40:46;;;;;;;23.37;13.70;;;7.30;99.90;;;;;;4916220;29;20441;-50
2022/01/25 11:43:15;;;;;;;20.60;13.07;;;7.30;99.90;;;;;;4916965;29;20430;-50
2022/01/25 11:45:45;;;;;;;26.07;13.50;;;7.20;99.90;;;;;;4930979;29;20461;-50
2022/01/25 11:48:11;;;;;;;21.13;14.10;;;7.40;99.90;;;;;;4935658;29;20497;-49
2022/01/25 11:50:41;;;;;;;24.70;14.53;;;7.20;99.90;;;;;;4935012;29;20523;-50
2022/01/25 11:53:10;;;;;;;20.13;12.60;;;7.20;99.90;;;;;;4935700;29;20448;-50
2022/01/25 11:55:38;;;;;;;20.70;12.50;;;7.20;99.90;;;;;;4935563;29;20807;-50
2022/01/25 11:58:09;;;;;;;21.80;15.27;;;7.20;99.90;;;;;;4936091;29;20422;-50
2022/01/25 12:00:41;;;;;;;28.60;14.70;;;7.20;99.90;;;;;;4935135;29;20450;-49
2022/01/25 12:03:25;;;;;;;22.17;14.10;;;7.20;99.90;;;;;;4935244;29;20462;-50
2022/01/25 12:06:03;;;;;;;24.33;12.57;;;7.20;99.90;;;;;;4935368;29;20980;-49
2022/01/25 12:08:39;;;;;;;26.00;15.10;;;7.30;99.90;;;;;;4934770;29;20479;-51
2022/01/25 12:11:34;;;;;;;25.63;13.23;;;7.30;99.90;;;;;;4935107;29;20932;-50
2022/01/25 12:14:23;;;;;;;26.27;13.80;;;7.40;99.90;;;;;;4934835;29;20546;-50
2022/01/25 12:16:53;;;;;;;24.90;14.03;;;7.40;99.90;;;;;;4927509;29;20891;-50
2022/01/25 12:19:22;;;;;;;21.70;12.90;;;7.40;99.90;;;;;;4915407;29;20543;-50
2022/01/25 12:22:11;;;;;;;23.10;14.33;;;7.40;99.90;;;;;;4916217;29;20419;-50
2022/01/25 12:24:53;;;;;;;24.00;13.10;;;7.40;99.90;;;;;;4915937;29;20515;-50
2022/01/25 12:27:24;;;;;;;27.63;15.30;;;7.50;99.90;;;;;;4907457;29;20567;-51
2022/01/25 12:30:03;;;;;;;25.30;15.83;;;7.50;99.90;;;;;;4915809;29;20455;-50
2022/01/25 12:32:33;;;;;;;23.40;14.40;;;7.50;99.90;;;;;;4915608;29;20460;-50
2022/01/25 12:35:10;;;;;;;23.90;14.13;;;7.50;99.90;;;;;;4916203;29;20941;-50
2022/01/25 12:38:06;;;;;;;24.20;14.20;;;7.60;99.90;;;;;;4915984;29;20797;-49
2022/01/25 12:40:41;;;;;;;22.77;12.07;;;7.60;99.90;;;;;;4915622;29;20799;-50
2022/01/25 12:43:10;;;;;;;23.50;14.40;;;7.50;99.90;;;;;;4915598;29;20829;-50
2022/01/25 12:45:41;;;;;;;27.17;13.90;;;7.50;99.90;;;;;;4929646;29;20443;-50
2022/01/25 12:48:11;;;;;;;20.00;13.43;;;7.50;99.90;;;;;;4934704;29;20577;-50
2022/01/25 12:50:40;;;;;;;21.47;13.20;;;7.50;99.90;;;;;;4933062;29;20761;-50
2022/01/25 12:53:08;;;;;;;20.00;12.73;;;7.40;99.90;;;;;;4933940;29;20433;-50
2022/01/25 12:55:38;;;;;;;24.63;15.10;;;7.40;99.90;;;;;;4934405;29;20503;-49
2022/01/25 12:58:06;;;;;;;30.00;14.47;;;7.30;99.90;;;;;;4934093;29;20531;-50
2022/01/25 13:00:35;;;;;;;23.90;13.97;;;7.30;99.90;;;;;;4933988;29;20441;-50
2022/01/25 13:03:18;;;;;;;25.10;14.83;;;7.20;99.90;;;;;;4933530;29;20455;-50
2022/01/25 13:05:48;;;;;;;26.83;15.50;;;7.30;99.90;;;;;;4917037;29;20429;-50
2022/01/25 13:08:17;;;;;;;29.50;15.50;;;7.20;99.90;;;;;;4927394;29;20488;-50
2022/01/25 13:10:43;;;;;;;30.03;15.43;;;7.20;99.90;;;;;;4914637;29;20437;-50
2022/01/25 13:13:21;;;;;;;28.57;15.57;;;7.20;99.90;;;;;;4914830;29;20443;-50
2022/01/25 13:15:56;;;;;;;27.83;15.97;;;7.20;99.90;;;;;;4914978;29;20442;-50
2022/01/25 13:18:27;;;;;;;28.70;15.47;;;7.10;99.90;;;;;;4895978;29;20415;-50
2022/01/25 13:21:06;;;;;;;31.03;16.00;;;7.10;99.90;;;;;;4896293;29;20965;-49
2022/01/25 13:23:33;;;;;;;27.87;16.10;;;7.10;99.90;;;;;;4896105;29;20460;-51
2022/01/25 13:26:09;;;;;;;26.97;15.17;;;7.10;99.90;;;;;;4905071;29;20440;-50
2022/01/25 13:28:52;;;;;;;30.10;16.40;;;7.10;99.90;;;;;;4894546;29;20492;-50
2022/01/25 13:31:21;;;;;;;33.13;17.47;;;7.10;99.90;;;;;;4896139;29;20455;-49
2022/01/25 13:33:49;;;;;;;30.70;17.67;;;7.10;99.90;;;;;;4896005;29;20540;-50
2022/01/25 13:36:20;;;;;;;31.50;16.63;;;7.10;99.90;;;;;;4895573;29;20444;-50
2022/01/25 13:38:48;;;;;;;30.37;17.03;;;7.10;99.90;;;;;;4895316;29;20940;-51
2022/01/25 13:41:27;;;;;;;31.23;17.57;;;7.10;99.90;;;;;;4895439;29;20440;-50
2022/01/25 13:46:42;;;;;;;34.90;17.97;;;7.10;99.90;;;;;;4933318;29;20474;-50
2022/01/25 13:49:12;;;;;;;31.33;16.90;;;7.10;99.90;;;;;;4933031;29;20487;-50
2022/01/25 13:51:45;;;;;;;35.67;19.53;;;7.20;99.90;;;;;;4933487;29;20451;-50
2022/01/25 13:54:14;;;;;;;28.20;17.33;;;7.20;99.90;;;;;;4933595;29;21002;-50
2022/01/25 13:56:41;;;;;;;33.93;18.70;;;7.20;99.90;;;;;;4933426;29;20501;-50
2022/01/25 13:59:08;;;;;;;31.33;17.73;;;7.20;99.90;;;;;;4933147;29;20445;-50